sensor_id;sensor_type;location;lat;lon;timestamp;P1;durP1;ratioP1;P2;durP2;ratioP2
51184;SDS011;37248;59.350;18.050;2023-03-23T00:02:05;12.65;;;4.30;;
51184;SDS011;37248;59.350;18.050;2023-03-23T00:04:30;8.67;;;3.43;;
51184;SDS011;37248;59.350;18.050;2023-03-23T00:06:56;9.57;;;3.50;;
51184;SDS011;37248;59.350;18.050;2023-03-23T00:09:21;17.13;;;4.03;;
51184;SDS011;37248;59.350;18.050;2023-03-23T00:11:49;10.80;;;3.45;;
51184;SDS011;37248;59.350;18.050;2023-03-23T00:14:15;10.95;;;3.65;;
51184;SDS011;37248;59.350;18.050;2023-03-23T00:16:41;10.43;;;3.45;;
51184;SDS011;37248;59.350;18.050;2023-03-23T00:19:08;10.90;;;3.30;;
51184;SDS011;37248;59.350;18.050;2023-03-23T00:21:35;7.35;;;3.50;;
51184;SDS011;37248;59.350;18.050;2023-03-23T00:24:14;9.30;;;4.18;;
51184;SDS011;37248;59.350;18.050;2023-03-23T00:26:41;8.20;;;3.70;;
51184;SDS011;37248;59.350;18.050;2023-03-23T00:29:17;8.50;;;3.58;;
51184;SDS011;37248;59.350;18.050;2023-03-23T00:31:44;8.05;;;3.28;;
51184;SDS011;37248;59.350;18.050;2023-03-23T00:34:16;6.85;;;3.60;;
51184;SDS011;37248;59.350;18.050;2023-03-23T00:36:45;8.40;;;3.53;;
51184;SDS011;37248;59.350;18.050;2023-03-23T00:39:10;8.20;;;3.38;;
51184;SDS011;37248;59.350;18.050;2023-03-23T00:41:36;7.82;;;3.10;;
51184;SDS011;37248;59.350;18.050;2023-03-23T00:44:03;10.23;;;3.35;;
51184;SDS011;37248;59.350;18.050;2023-03-23T00:46:28;11.20;;;3.83;;
51184;SDS011;37248;59.350;18.050;2023-03-23T00:48:54;8.27;;;3.13;;
51184;SDS011;37248;59.350;18.050;2023-03-23T00:51:21;7.45;;;2.90;;
51184;SDS011;37248;59.350;18.050;2023-03-23T00:53:46;7.70;;;2.90;;
51184;SDS011;37248;59.350;18.050;2023-03-23T00:56:12;7.77;;;3.27;;
51184;SDS011;37248;59.350;18.050;2023-03-23T00:58:38;7.78;;;3.55;;
51184;SDS011;37248;59.350;18.050;2023-03-23T01:01:03;9.20;;;3.20;;
51184;SDS011;37248;59.350;18.050;2023-03-23T01:03:28;8.03;;;3.10;;
51184;SDS011;37248;59.350;18.050;2023-03-23T01:05:54;7.83;;;3.27;;
51184;SDS011;37248;59.350;18.050;2023-03-23T01:08:21;5.95;;;3.08;;
51184;SDS011;37248;59.350;18.050;2023-03-23T01:10:46;6.68;;;3.28;;
51184;SDS011;37248;59.350;18.050;2023-03-23T01:13:12;6.37;;;2.70;;
51184;SDS011;37248;59.350;18.050;2023-03-23T01:15:37;6.97;;;2.73;;
51184;SDS011;37248;59.350;18.050;2023-03-23T01:18:03;5.97;;;3.00;;
51184;SDS011;37248;59.350;18.050;2023-03-23T01:20:28;6.93;;;2.77;;
51184;SDS011;37248;59.350;18.050;2023-03-23T01:22:56;6.20;;;2.75;;
51184;SDS011;37248;59.350;18.050;2023-03-23T01:25:25;5.47;;;2.90;;
51184;SDS011;37248;59.350;18.050;2023-03-23T01:27:50;8.27;;;2.60;;
51184;SDS011;37248;59.350;18.050;2023-03-23T01:30:16;7.23;;;2.70;;
51184;SDS011;37248;59.350;18.050;2023-03-23T01:32:41;7.93;;;2.83;;
51184;SDS011;37248;59.350;18.050;2023-03-23T01:35:06;6.60;;;2.63;;
51184;SDS011;37248;59.350;18.050;2023-03-23T01:37:32;5.57;;;2.60;;
51184;SDS011;37248;59.350;18.050;2023-03-23T01:39:57;8.55;;;2.72;;
51184;SDS011;37248;59.350;18.050;2023-03-23T01:42:23;7.73;;;3.00;;
51184;SDS011;37248;59.350;18.050;2023-03-23T01:47:14;9.48;;;2.92;;
51184;SDS011;37248;59.350;18.050;2023-03-23T01:49:42;8.98;;;3.05;;
51184;SDS011;37248;59.350;18.050;2023-03-23T01:52:10;6.05;;;2.40;;
51184;SDS011;37248;59.350;18.050;2023-03-23T01:54:42;5.68;;;2.50;;
51184;SDS011;37248;59.350;18.050;2023-03-23T01:57:10;7.10;;;2.60;;
51184;SDS011;37248;59.350;18.050;2023-03-23T01:59:37;5.90;;;2.87;;
51184;SDS011;37248;59.350;18.050;2023-03-23T02:02:02;6.23;;;2.60;;
51184;SDS011;37248;59.350;18.050;2023-03-23T02:04:29;6.50;;;2.75;;
51184;SDS011;37248;59.350;18.050;2023-03-23T02:06:55;5.40;;;2.38;;
51184;SDS011;37248;59.350;18.050;2023-03-23T02:09:22;4.75;;;2.40;;
51184;SDS011;37248;59.350;18.050;2023-03-23T02:11:48;6.93;;;2.67;;
51184;SDS011;37248;59.350;18.050;2023-03-23T02:14:15;6.05;;;2.40;;
51184;SDS011;37248;59.350;18.050;2023-03-23T02:19:40;5.40;;;2.70;;
51184;SDS011;37248;59.350;18.050;2023-03-23T02:27:08;5.93;;;2.50;;
51184;SDS011;37248;59.350;18.050;2023-03-23T02:34:59;4.75;;;2.45;;
51184;SDS011;37248;59.350;18.050;2023-03-23T02:37:46;7.40;;;2.53;;
51184;SDS011;37248;59.350;18.050;2023-03-23T02:40:14;4.20;;;2.33;;
51184;SDS011;37248;59.350;18.050;2023-03-23T02:42:42;6.27;;;2.57;;
51184;SDS011;37248;59.350;18.050;2023-03-23T02:45:08;5.20;;;2.70;;
51184;SDS011;37248;59.350;18.050;2023-03-23T02:47:35;6.30;;;2.53;;
51184;SDS011;37248;59.350;18.050;2023-03-23T02:50:01;8.43;;;2.67;;
51184;SDS011;37248;59.350;18.050;2023-03-23T02:52:28;5.50;;;2.43;;
51184;SDS011;37248;59.350;18.050;2023-03-23T02:54:54;7.85;;;2.85;;
51184;SDS011;37248;59.350;18.050;2023-03-23T02:57:21;4.57;;;2.40;;
51184;SDS011;37248;59.350;18.050;2023-03-23T02:59:47;7.68;;;2.75;;
51184;SDS011;37248;59.350;18.050;2023-03-23T03:02:14;7.60;;;2.73;;
51184;SDS011;37248;59.350;18.050;2023-03-23T03:04:42;6.30;;;2.85;;
51184;SDS011;37248;59.350;18.050;2023-03-23T03:09:58;6.72;;;2.60;;
51184;SDS011;37248;59.350;18.050;2023-03-23T03:17:34;6.40;;;2.80;;
51184;SDS011;37248;59.350;18.050;2023-03-23T03:20:02;9.95;;;2.78;;
51184;SDS011;37248;59.350;18.050;2023-03-23T03:22:33;5.47;;;2.40;;
51184;SDS011;37248;59.350;18.050;2023-03-23T03:25:02;5.43;;;2.50;;
51184;SDS011;37248;59.350;18.050;2023-03-23T03:27:27;5.33;;;2.40;;
51184;SDS011;37248;59.350;18.050;2023-03-23T03:29:54;7.87;;;2.87;;
51184;SDS011;37248;59.350;18.050;2023-03-23T03:32:22;5.32;;;2.38;;
51184;SDS011;37248;59.350;18.050;2023-03-23T03:34:49;5.45;;;2.40;;
51184;SDS011;37248;59.350;18.050;2023-03-23T03:37:15;8.00;;;2.70;;
51184;SDS011;37248;59.350;18.050;2023-03-23T03:39:41;6.97;;;2.53;;
51184;SDS011;37248;59.350;18.050;2023-03-23T03:42:06;5.27;;;2.30;;
51184;SDS011;37248;59.350;18.050;2023-03-23T03:44:32;7.47;;;2.80;;
51184;SDS011;37248;59.350;18.050;2023-03-23T03:46:57;10.63;;;2.60;;
51184;SDS011;37248;59.350;18.050;2023-03-23T03:49:23;8.47;;;3.00;;
51184;SDS011;37248;59.350;18.050;2023-03-23T03:51:48;5.87;;;2.53;;
51184;SDS011;37248;59.350;18.050;2023-03-23T03:54:13;6.17;;;2.40;;
51184;SDS011;37248;59.350;18.050;2023-03-23T03:56:39;5.50;;;2.57;;
51184;SDS011;37248;59.350;18.050;2023-03-23T03:59:09;6.67;;;2.60;;
51184;SDS011;37248;59.350;18.050;2023-03-23T04:01:35;6.88;;;2.35;;
51184;SDS011;37248;59.350;18.050;2023-03-23T04:04:00;7.60;;;2.63;;
51184;SDS011;37248;59.350;18.050;2023-03-23T04:06:26;5.37;;;2.57;;
51184;SDS011;37248;59.350;18.050;2023-03-23T04:08:53;6.07;;;2.72;;
51184;SDS011;37248;59.350;18.050;2023-03-23T04:11:18;9.05;;;2.60;;
51184;SDS011;37248;59.350;18.050;2023-03-23T04:13:43;8.77;;;2.93;;
51184;SDS011;37248;59.350;18.050;2023-03-23T04:16:08;10.70;;;2.93;;
51184;SDS011;37248;59.350;18.050;2023-03-23T04:18:34;13.70;;;2.90;;
51184;SDS011;37248;59.350;18.050;2023-03-23T04:21:00;6.10;;;2.45;;
51184;SDS011;37248;59.350;18.050;2023-03-23T04:23:26;8.68;;;2.70;;
51184;SDS011;37248;59.350;18.050;2023-03-23T04:25:53;10.32;;;3.03;;
51184;SDS011;37248;59.350;18.050;2023-03-23T04:28:22;13.88;;;3.03;;
51184;SDS011;37248;59.350;18.050;2023-03-23T04:30:48;8.73;;;3.03;;
51184;SDS011;37248;59.350;18.050;2023-03-23T04:33:13;7.97;;;2.80;;
51184;SDS011;37248;59.350;18.050;2023-03-23T04:35:40;9.20;;;2.50;;
51184;SDS011;37248;59.350;18.050;2023-03-23T04:38:05;9.73;;;2.97;;
51184;SDS011;37248;59.350;18.050;2023-03-23T04:40:30;7.00;;;2.77;;
51184;SDS011;37248;59.350;18.050;2023-03-23T04:42:55;12.20;;;2.80;;
51184;SDS011;37248;59.350;18.050;2023-03-23T04:45:22;6.32;;;3.00;;
51184;SDS011;37248;59.350;18.050;2023-03-23T04:47:48;7.90;;;2.67;;
51184;SDS011;37248;59.350;18.050;2023-03-23T04:50:18;8.85;;;2.80;;
51184;SDS011;37248;59.350;18.050;2023-03-23T04:52:44;9.63;;;2.95;;
51184;SDS011;37248;59.350;18.050;2023-03-23T04:55:10;6.53;;;2.57;;
51184;SDS011;37248;59.350;18.050;2023-03-23T04:57:36;7.13;;;2.90;;
51184;SDS011;37248;59.350;18.050;2023-03-23T05:00:02;10.37;;;2.53;;
51184;SDS011;37248;59.350;18.050;2023-03-23T05:02:33;9.43;;;2.90;;
51184;SDS011;37248;59.350;18.050;2023-03-23T05:04:59;9.30;;;3.03;;
51184;SDS011;37248;59.350;18.050;2023-03-23T05:07:24;10.52;;;3.20;;
51184;SDS011;37248;59.350;18.050;2023-03-23T05:09:50;9.03;;;3.00;;
51184;SDS011;37248;59.350;18.050;2023-03-23T05:12:15;6.50;;;2.80;;
51184;SDS011;37248;59.350;18.050;2023-03-23T05:14:41;14.65;;;2.80;;
51184;SDS011;37248;59.350;18.050;2023-03-23T05:17:07;11.70;;;3.40;;
51184;SDS011;37248;59.350;18.050;2023-03-23T05:19:32;9.70;;;2.97;;
51184;SDS011;37248;59.350;18.050;2023-03-23T05:21:58;7.97;;;2.60;;
51184;SDS011;37248;59.350;18.050;2023-03-23T05:24:29;6.97;;;2.80;;
51184;SDS011;37248;59.350;18.050;2023-03-23T05:26:56;5.93;;;2.88;;
51184;SDS011;37248;59.350;18.050;2023-03-23T05:29:21;10.50;;;2.70;;
51184;SDS011;37248;59.350;18.050;2023-03-23T05:31:48;9.63;;;2.70;;
51184;SDS011;37248;59.350;18.050;2023-03-23T05:34:14;9.10;;;2.80;;
51184;SDS011;37248;59.350;18.050;2023-03-23T05:36:41;7.38;;;2.63;;
51184;SDS011;37248;59.350;18.050;2023-03-23T05:39:08;6.32;;;2.78;;
51184;SDS011;37248;59.350;18.050;2023-03-23T05:41:35;4.97;;;2.73;;
51184;SDS011;37248;59.350;18.050;2023-03-23T05:44:00;7.93;;;2.47;;
51184;SDS011;37248;59.350;18.050;2023-03-23T05:46:25;5.23;;;2.50;;
51184;SDS011;37248;59.350;18.050;2023-03-23T05:48:51;8.23;;;2.37;;
51184;SDS011;37248;59.350;18.050;2023-03-23T05:51:17;7.07;;;2.57;;
51184;SDS011;37248;59.350;18.050;2023-03-23T05:53:43;5.23;;;2.50;;
51184;SDS011;37248;59.350;18.050;2023-03-23T05:56:09;5.60;;;2.60;;
51184;SDS011;37248;59.350;18.050;2023-03-23T05:58:34;5.40;;;2.20;;
51184;SDS011;37248;59.350;18.050;2023-03-23T06:00:59;6.40;;;2.40;;
51184;SDS011;37248;59.350;18.050;2023-03-23T06:03:24;6.13;;;2.70;;
51184;SDS011;37248;59.350;18.050;2023-03-23T06:05:50;6.27;;;2.37;;
51184;SDS011;37248;59.350;18.050;2023-03-23T06:08:15;8.20;;;2.57;;
51184;SDS011;37248;59.350;18.050;2023-03-23T06:10:40;6.80;;;2.80;;
51184;SDS011;37248;59.350;18.050;2023-03-23T06:13:05;7.07;;;2.43;;
51184;SDS011;37248;59.350;18.050;2023-03-23T06:15:31;4.57;;;2.03;;
51184;SDS011;37248;59.350;18.050;2023-03-23T06:18:01;7.70;;;2.70;;
51184;SDS011;37248;59.350;18.050;2023-03-23T06:20:26;6.20;;;2.38;;
51184;SDS011;37248;59.350;18.050;2023-03-23T06:22:51;11.33;;;2.53;;
51184;SDS011;37248;59.350;18.050;2023-03-23T06:25:17;5.40;;;2.50;;
51184;SDS011;37248;59.350;18.050;2023-03-23T06:27:42;5.30;;;2.17;;
51184;SDS011;37248;59.350;18.050;2023-03-23T06:30:09;11.25;;;2.83;;
51184;SDS011;37248;59.350;18.050;2023-03-23T06:32:34;7.57;;;2.78;;
51184;SDS011;37248;59.350;18.050;2023-03-23T06:35:00;7.07;;;2.60;;
51184;SDS011;37248;59.350;18.050;2023-03-23T06:37:26;9.00;;;3.03;;
51184;SDS011;37248;59.350;18.050;2023-03-23T06:39:51;10.20;;;3.07;;
51184;SDS011;37248;59.350;18.050;2023-03-23T06:42:17;8.07;;;2.85;;
51184;SDS011;37248;59.350;18.050;2023-03-23T06:44:43;11.18;;;3.38;;
51184;SDS011;37248;59.350;18.050;2023-03-23T06:47:08;12.50;;;3.42;;
51184;SDS011;37248;59.350;18.050;2023-03-23T06:49:34;10.87;;;2.87;;
51184;SDS011;37248;59.350;18.050;2023-03-23T06:51:59;7.60;;;3.27;;
51184;SDS011;37248;59.350;18.050;2023-03-23T06:54:26;11.45;;;3.50;;
51184;SDS011;37248;59.350;18.050;2023-03-23T06:56:52;12.10;;;3.27;;
51184;SDS011;37248;59.350;18.050;2023-03-23T06:59:17;9.40;;;3.10;;
51184;SDS011;37248;59.350;18.050;2023-03-23T07:01:42;10.77;;;3.30;;
51184;SDS011;37248;59.350;18.050;2023-03-23T07:04:08;8.23;;;2.67;;
51184;SDS011;37248;59.350;18.050;2023-03-23T07:06:33;9.52;;;3.38;;
51184;SDS011;37248;59.350;18.050;2023-03-23T07:08:58;7.53;;;3.07;;
51184;SDS011;37248;59.350;18.050;2023-03-23T07:11:24;9.27;;;3.50;;
51184;SDS011;37248;59.350;18.050;2023-03-23T07:13:50;11.90;;;3.60;;
51184;SDS011;37248;59.350;18.050;2023-03-23T07:16:15;8.53;;;3.40;;
51184;SDS011;37248;59.350;18.050;2023-03-23T07:18:41;8.70;;;3.28;;
51184;SDS011;37248;59.350;18.050;2023-03-23T07:21:06;9.87;;;3.77;;
51184;SDS011;37248;59.350;18.050;2023-03-23T07:23:32;8.50;;;3.57;;
51184;SDS011;37248;59.350;18.050;2023-03-23T07:25:57;7.65;;;2.90;;
51184;SDS011;37248;59.350;18.050;2023-03-23T07:28:22;9.33;;;3.50;;
51184;SDS011;37248;59.350;18.050;2023-03-23T07:30:48;9.57;;;3.63;;
51184;SDS011;37248;59.350;18.050;2023-03-23T07:33:13;8.10;;;3.30;;
51184;SDS011;37248;59.350;18.050;2023-03-23T07:35:38;8.03;;;3.03;;
51184;SDS011;37248;59.350;18.050;2023-03-23T07:38:04;6.87;;;3.00;;
51184;SDS011;37248;59.350;18.050;2023-03-23T07:40:31;6.45;;;2.95;;
51184;SDS011;37248;59.350;18.050;2023-03-23T07:42:58;10.02;;;3.40;;
51184;SDS011;37248;59.350;18.050;2023-03-23T07:45:24;9.75;;;3.70;;
51184;SDS011;37248;59.350;18.050;2023-03-23T07:47:49;8.97;;;3.27;;
51184;SDS011;37248;59.350;18.050;2023-03-23T07:50:15;8.77;;;3.07;;
51184;SDS011;37248;59.350;18.050;2023-03-23T07:52:41;16.17;;;4.07;;
51184;SDS011;37248;59.350;18.050;2023-03-23T07:55:07;15.43;;;3.73;;
51184;SDS011;37248;59.350;18.050;2023-03-23T07:57:33;16.83;;;3.28;;
51184;SDS011;37248;59.350;18.050;2023-03-23T07:59:58;11.57;;;3.60;;
51184;SDS011;37248;59.350;18.050;2023-03-23T08:02:24;17.23;;;4.10;;
51184;SDS011;37248;59.350;18.050;2023-03-23T08:04:49;13.07;;;3.73;;
51184;SDS011;37248;59.350;18.050;2023-03-23T08:07:15;20.17;;;3.73;;
51184;SDS011;37248;59.350;18.050;2023-03-23T08:09:45;15.93;;;3.58;;
51184;SDS011;37248;59.350;18.050;2023-03-23T08:12:11;18.50;;;3.83;;
51184;SDS011;37248;59.350;18.050;2023-03-23T08:14:37;11.40;;;3.57;;
51184;SDS011;37248;59.350;18.050;2023-03-23T08:17:02;10.20;;;3.80;;
51184;SDS011;37248;59.350;18.050;2023-03-23T08:19:27;15.07;;;4.17;;
51184;SDS011;37248;59.350;18.050;2023-03-23T08:21:53;11.97;;;3.33;;
51184;SDS011;37248;59.350;18.050;2023-03-23T08:24:18;16.55;;;4.00;;
51184;SDS011;37248;59.350;18.050;2023-03-23T08:26:44;12.23;;;3.80;;
51184;SDS011;37248;59.350;18.050;2023-03-23T08:29:09;9.73;;;3.80;;
51184;SDS011;37248;59.350;18.050;2023-03-23T08:31:34;10.17;;;3.87;;
51184;SDS011;37248;59.350;18.050;2023-03-23T08:34:03;76.90;;;7.50;;
51184;SDS011;37248;59.350;18.050;2023-03-23T08:36:30;37.15;;;6.70;;
51184;SDS011;37248;59.350;18.050;2023-03-23T08:38:55;32.15;;;5.78;;
51184;SDS011;37248;59.350;18.050;2023-03-23T08:41:20;29.87;;;5.47;;
51184;SDS011;37248;59.350;18.050;2023-03-23T08:43:46;21.98;;;4.85;;
51184;SDS011;37248;59.350;18.050;2023-03-23T08:46:11;25.67;;;4.90;;
51184;SDS011;37248;59.350;18.050;2023-03-23T08:48:37;22.47;;;5.37;;
51184;SDS011;37248;59.350;18.050;2023-03-23T08:51:03;25.08;;;4.68;;
51184;SDS011;37248;59.350;18.050;2023-03-23T08:53:29;20.58;;;4.43;;
51184;SDS011;37248;59.350;18.050;2023-03-23T08:55:56;18.20;;;4.90;;
51184;SDS011;37248;59.350;18.050;2023-03-23T08:58:21;16.67;;;4.47;;
51184;SDS011;37248;59.350;18.050;2023-03-23T09:00:47;17.67;;;4.40;;
51184;SDS011;37248;59.350;18.050;2023-03-23T09:03:13;19.53;;;4.37;;
51184;SDS011;37248;59.350;18.050;2023-03-23T09:05:38;17.07;;;4.10;;
51184;SDS011;37248;59.350;18.050;2023-03-23T09:08:08;13.20;;;4.00;;
51184;SDS011;37248;59.350;18.050;2023-03-23T09:10:33;12.57;;;4.03;;
51184;SDS011;37248;59.350;18.050;2023-03-23T09:12:58;13.50;;;4.03;;
51184;SDS011;37248;59.350;18.050;2023-03-23T09:15:24;11.10;;;3.83;;
51184;SDS011;37248;59.350;18.050;2023-03-23T09:17:50;17.10;;;3.77;;
51184;SDS011;37248;59.350;18.050;2023-03-23T09:20:16;11.80;;;3.80;;
51184;SDS011;37248;59.350;18.050;2023-03-23T09:22:43;13.05;;;3.95;;
51184;SDS011;37248;59.350;18.050;2023-03-23T09:25:13;14.05;;;3.90;;
51184;SDS011;37248;59.350;18.050;2023-03-23T09:27:40;16.88;;;4.25;;
51184;SDS011;37248;59.350;18.050;2023-03-23T09:30:07;10.15;;;3.38;;
51184;SDS011;37248;59.350;18.050;2023-03-23T09:32:33;10.50;;;3.55;;
51184;SDS011;37248;59.350;18.050;2023-03-23T09:35:00;11.55;;;3.70;;
51184;SDS011;37248;59.350;18.050;2023-03-23T09:37:25;13.60;;;3.53;;
51184;SDS011;37248;59.350;18.050;2023-03-23T09:39:50;8.40;;;3.47;;
51184;SDS011;37248;59.350;18.050;2023-03-23T09:47:42;9.05;;;3.30;;
51184;SDS011;37248;59.350;18.050;2023-03-23T09:50:11;9.48;;;3.78;;
51184;SDS011;37248;59.350;18.050;2023-03-23T09:52:44;10.13;;;3.28;;
51184;SDS011;37248;59.350;18.050;2023-03-23T09:55:12;10.13;;;3.30;;
51184;SDS011;37248;59.350;18.050;2023-03-23T10:07:38;8.35;;;3.10;;
51184;SDS011;37248;59.350;18.050;2023-03-23T10:10:04;8.30;;;3.00;;
51184;SDS011;37248;59.350;18.050;2023-03-23T10:15:22;10.23;;;3.20;;
51184;SDS011;37248;59.350;18.050;2023-03-23T10:25:51;7.50;;;3.05;;
51184;SDS011;37248;59.350;18.050;2023-03-23T10:28:18;10.35;;;3.17;;
51184;SDS011;37248;59.350;18.050;2023-03-23T10:30:55;7.88;;;3.30;;
51184;SDS011;37248;59.350;18.050;2023-03-23T10:33:38;8.20;;;2.88;;
51184;SDS011;37248;59.350;18.050;2023-03-23T10:36:08;8.67;;;3.23;;
51184;SDS011;37248;59.350;18.050;2023-03-23T10:41:05;8.50;;;3.00;;
51184;SDS011;37248;59.350;18.050;2023-03-23T10:43:31;6.78;;;3.17;;
51184;SDS011;37248;59.350;18.050;2023-03-23T10:46:00;9.33;;;3.10;;
51184;SDS011;37248;59.350;18.050;2023-03-23T10:48:30;8.45;;;2.92;;
51184;SDS011;37248;59.350;18.050;2023-03-23T10:51:00;5.60;;;3.10;;
51184;SDS011;37248;59.350;18.050;2023-03-23T10:53:37;7.90;;;2.97;;
51184;SDS011;37248;59.350;18.050;2023-03-23T10:56:03;8.20;;;3.10;;
51184;SDS011;37248;59.350;18.050;2023-03-23T10:58:33;7.00;;;3.20;;
51184;SDS011;37248;59.350;18.050;2023-03-23T11:00:59;9.35;;;3.20;;
51184;SDS011;37248;59.350;18.050;2023-03-23T11:03:47;9.60;;;2.97;;
51184;SDS011;37248;59.350;18.050;2023-03-23T11:06:23;6.85;;;2.88;;
51184;SDS011;37248;59.350;18.050;2023-03-23T11:09:33;6.72;;;2.95;;
51184;SDS011;37248;59.350;18.050;2023-03-23T11:11:43;6.88;;;3.10;;
51184;SDS011;37248;59.350;18.050;2023-03-23T11:14:24;7.38;;;3.30;;
51184;SDS011;37248;59.350;18.050;2023-03-23T11:16:51;7.35;;;3.15;;
51184;SDS011;37248;59.350;18.050;2023-03-23T11:19:36;5.53;;;2.83;;
51184;SDS011;37248;59.350;18.050;2023-03-23T11:22:09;6.05;;;2.85;;
51184;SDS011;37248;59.350;18.050;2023-03-23T11:24:57;8.82;;;3.03;;
51184;SDS011;37248;59.350;18.050;2023-03-23T11:27:24;6.03;;;2.75;;
51184;SDS011;37248;59.350;18.050;2023-03-23T11:29:56;5.90;;;3.00;;
51184;SDS011;37248;59.350;18.050;2023-03-23T11:32:24;5.55;;;3.10;;
51184;SDS011;37248;59.350;18.050;2023-03-23T11:34:53;6.30;;;2.97;;
51184;SDS011;37248;59.350;18.050;2023-03-23T11:37:23;6.40;;;3.08;;
51184;SDS011;37248;59.350;18.050;2023-03-23T11:39:53;5.88;;;2.80;;
51184;SDS011;37248;59.350;18.050;2023-03-23T11:45:12;4.97;;;2.60;;
51184;SDS011;37248;59.350;18.050;2023-03-23T11:47:43;6.47;;;2.93;;
51184;SDS011;37248;59.350;18.050;2023-03-23T11:50:18;5.95;;;2.75;;
51184;SDS011;37248;59.350;18.050;2023-03-23T11:55:21;6.57;;;2.40;;
51184;SDS011;37248;59.350;18.050;2023-03-23T11:57:48;4.60;;;2.70;;
51184;SDS011;37248;59.350;18.050;2023-03-23T12:15:43;5.53;;;2.65;;
51184;SDS011;37248;59.350;18.050;2023-03-23T12:23:04;6.13;;;2.60;;
51184;SDS011;37248;59.350;18.050;2023-03-23T12:38:36;4.73;;;2.30;;
51184;SDS011;37248;59.350;18.050;2023-03-23T12:43:48;4.70;;;2.50;;
51184;SDS011;37248;59.350;18.050;2023-03-23T12:46:22;4.40;;;2.28;;
51184;SDS011;37248;59.350;18.050;2023-03-23T12:48:54;4.63;;;2.20;;
51184;SDS011;37248;59.350;18.050;2023-03-23T12:51:27;4.55;;;2.35;;
51184;SDS011;37248;59.350;18.050;2023-03-23T12:58:46;5.37;;;2.43;;
51184;SDS011;37248;59.350;18.050;2023-03-23T13:01:14;6.45;;;2.28;;
51184;SDS011;37248;59.350;18.050;2023-03-23T13:08:50;4.60;;;2.20;;
51184;SDS011;37248;59.350;18.050;2023-03-23T13:11:40;4.35;;;2.25;;
51184;SDS011;37248;59.350;18.050;2023-03-23T13:22:04;3.40;;;1.88;;
51184;SDS011;37248;59.350;18.050;2023-03-23T13:24:31;4.93;;;2.08;;
51184;SDS011;37248;59.350;18.050;2023-03-23T13:26:59;5.00;;;2.20;;
51184;SDS011;37248;59.350;18.050;2023-03-23T13:29:26;4.93;;;2.25;;
51184;SDS011;37248;59.350;18.050;2023-03-23T13:31:52;6.03;;;2.00;;
51184;SDS011;37248;59.350;18.050;2023-03-23T13:34:29;4.32;;;2.05;;
51184;SDS011;37248;59.350;18.050;2023-03-23T13:36:59;4.47;;;1.83;;
51184;SDS011;37248;59.350;18.050;2023-03-23T13:39:28;4.80;;;1.92;;
51184;SDS011;37248;59.350;18.050;2023-03-23T13:42:05;4.45;;;1.92;;
51184;SDS011;37248;59.350;18.050;2023-03-23T13:44:43;4.60;;;2.10;;
51184;SDS011;37248;59.350;18.050;2023-03-23T13:52:15;5.10;;;1.90;;
51184;SDS011;37248;59.350;18.050;2023-03-23T13:54:43;5.45;;;2.03;;
51184;SDS011;37248;59.350;18.050;2023-03-23T13:59:47;5.50;;;2.00;;
51184;SDS011;37248;59.350;18.050;2023-03-23T14:04:56;4.00;;;1.90;;
51184;SDS011;37248;59.350;18.050;2023-03-23T14:07:22;3.93;;;1.90;;
51184;SDS011;37248;59.350;18.050;2023-03-23T14:09:49;4.37;;;2.07;;
51184;SDS011;37248;59.350;18.050;2023-03-23T14:12:17;4.28;;;2.00;;
51184;SDS011;37248;59.350;18.050;2023-03-23T14:15:01;4.57;;;1.98;;
51184;SDS011;37248;59.350;18.050;2023-03-23T14:17:30;5.10;;;1.73;;
51184;SDS011;37248;59.350;18.050;2023-03-23T14:19:57;3.15;;;1.52;;
51184;SDS011;37248;59.350;18.050;2023-03-23T14:22:27;3.60;;;1.73;;
51184;SDS011;37248;59.350;18.050;2023-03-23T14:25:00;4.53;;;1.60;;
51184;SDS011;37248;59.350;18.050;2023-03-23T14:27:26;5.22;;;1.58;;
51184;SDS011;37248;59.350;18.050;2023-03-23T14:29:58;6.00;;;1.92;;
51184;SDS011;37248;59.350;18.050;2023-03-23T14:32:24;3.80;;;1.60;;
51184;SDS011;37248;59.350;18.050;2023-03-23T14:34:52;4.78;;;1.80;;
51184;SDS011;37248;59.350;18.050;2023-03-23T14:37:18;4.60;;;1.88;;
51184;SDS011;37248;59.350;18.050;2023-03-23T14:39:47;12.57;;;2.47;;
51184;SDS011;37248;59.350;18.050;2023-03-23T14:42:16;8.98;;;2.00;;
51184;SDS011;37248;59.350;18.050;2023-03-23T14:44:46;7.55;;;1.90;;
51184;SDS011;37248;59.350;18.050;2023-03-23T14:47:22;8.38;;;1.77;;
51184;SDS011;37248;59.350;18.050;2023-03-23T14:49:52;7.78;;;2.08;;
51184;SDS011;37248;59.350;18.050;2023-03-23T14:52:18;8.73;;;1.92;;
51184;SDS011;37248;59.350;18.050;2023-03-23T14:54:44;10.23;;;2.10;;
51184;SDS011;37248;59.350;18.050;2023-03-23T14:59:44;12.98;;;2.50;;
51184;SDS011;37248;59.350;18.050;2023-03-23T15:02:17;8.83;;;2.20;;
51184;SDS011;37248;59.350;18.050;2023-03-23T15:04:44;9.23;;;2.10;;
51184;SDS011;37248;59.350;18.050;2023-03-23T15:07:10;11.55;;;2.22;;
51184;SDS011;37248;59.350;18.050;2023-03-23T15:09:38;8.40;;;2.13;;
51184;SDS011;37248;59.350;18.050;2023-03-23T15:12:05;5.78;;;1.90;;
51184;SDS011;37248;59.350;18.050;2023-03-23T15:14:31;8.50;;;2.40;;
51184;SDS011;37248;59.350;18.050;2023-03-23T15:16:58;8.18;;;2.08;;
51184;SDS011;37248;59.350;18.050;2023-03-23T15:21:51;7.17;;;2.07;;
51184;SDS011;37248;59.350;18.050;2023-03-23T15:26:51;10.15;;;2.20;;
51184;SDS011;37248;59.350;18.050;2023-03-23T15:29:18;10.38;;;2.05;;
51184;SDS011;37248;59.350;18.050;2023-03-23T15:31:45;9.73;;;2.17;;
51184;SDS011;37248;59.350;18.050;2023-03-23T15:34:12;8.80;;;2.03;;
51184;SDS011;37248;59.350;18.050;2023-03-23T15:36:39;6.63;;;2.00;;
51184;SDS011;37248;59.350;18.050;2023-03-23T15:39:05;8.33;;;1.83;;
51184;SDS011;37248;59.350;18.050;2023-03-23T15:41:32;6.53;;;1.83;;
51184;SDS011;37248;59.350;18.050;2023-03-23T15:44:08;9.53;;;2.10;;
51184;SDS011;37248;59.350;18.050;2023-03-23T15:46:34;7.70;;;1.83;;
51184;SDS011;37248;59.350;18.050;2023-03-23T15:51:28;7.90;;;2.13;;
51184;SDS011;37248;59.350;18.050;2023-03-23T15:53:54;3.85;;;1.80;;
51184;SDS011;37248;59.350;18.050;2023-03-23T15:56:20;6.50;;;2.08;;
51184;SDS011;37248;59.350;18.050;2023-03-23T15:58:46;7.47;;;2.30;;
51184;SDS011;37248;59.350;18.050;2023-03-23T16:01:12;7.57;;;1.90;;
51184;SDS011;37248;59.350;18.050;2023-03-23T16:03:39;4.97;;;2.10;;
51184;SDS011;37248;59.350;18.050;2023-03-23T16:06:08;7.18;;;2.35;;
51184;SDS011;37248;59.350;18.050;2023-03-23T16:08:34;6.88;;;1.90;;
51184;SDS011;37248;59.350;18.050;2023-03-23T16:11:04;6.20;;;2.30;;
51184;SDS011;37248;59.350;18.050;2023-03-23T16:13:30;7.07;;;2.42;;
51184;SDS011;37248;59.350;18.050;2023-03-23T16:15:55;5.47;;;2.20;;
51184;SDS011;37248;59.350;18.050;2023-03-23T16:18:21;6.57;;;2.30;;
51184;SDS011;37248;59.350;18.050;2023-03-23T16:20:47;5.80;;;2.30;;
51184;SDS011;37248;59.350;18.050;2023-03-23T16:23:12;7.53;;;2.35;;
51184;SDS011;37248;59.350;18.050;2023-03-23T16:25:38;9.67;;;2.50;;
51184;SDS011;37248;59.350;18.050;2023-03-23T16:28:03;6.80;;;2.57;;
51184;SDS011;37248;59.350;18.050;2023-03-23T16:30:31;5.90;;;2.40;;
51184;SDS011;37248;59.350;18.050;2023-03-23T16:32:57;6.25;;;2.10;;
51184;SDS011;37248;59.350;18.050;2023-03-23T16:35:22;9.88;;;2.55;;
51184;SDS011;37248;59.350;18.050;2023-03-23T16:37:52;13.97;;;2.97;;
51184;SDS011;37248;59.350;18.050;2023-03-23T16:40:17;8.52;;;3.00;;
51184;SDS011;37248;59.350;18.050;2023-03-23T16:42:43;6.70;;;2.85;;
51184;SDS011;37248;59.350;18.050;2023-03-23T16:45:09;9.97;;;2.37;;